메인 페이지
METAR-TAF:

METAR-TAF

공항 :

위치토, 캔자스, 미국

위도: 37-38-50N, 경도: 097-25-46W, 고도: 406m

현재 날씨관측

예보는 23분 전, 16:28시(UTC)에 발표되었습니다.
남서8kt
온도 6°C
습도 100%
기압 1008 hPa
시정: 1.6km
고도 200ft 상공 흐림
박무

METAR: KICT 191628Z 23008KT 1SM R01L/5500VP6000FT BR OVC002 06/06 A2978 RMK AO2 SFC VIS 1 1/4 T00610056

시각: 10:51 (16:51 UTC)

예보

예보는 1 시간 15분 전, 15:36시(UTC)에 발표되었습니다.
예보 대상 시간: 19일 16시부터 20일 12시까지 (UTC)
10kt
시정: 0.4km
고도 200ft 상공 흐림
안개
19일 1700시부터 (UTC)
남남서10kt
시정: 4.8km
고도 200ft 상공 구름 보통
고도 12000ft 상공 구름 많음
박무
19일 1800시부터 (UTC)
남서10kt
시정: 10km
고도 10000ft 상공 구름 많음
19일 2000시부터 (UTC)
13kt
시정: 10km
고도 15000ft 상공 구름 많음
20일 0000시부터 (UTC)
북북서16kt, 순간 최대 풍속 24kt
시정: 10km
고도 15000ft 상공 구름 많음

TAF: KICT 191536Z 1916/2012 19010KT 1/4SM FG OVC002 FM191700 20010KT 3SM BR SCT002 BKN120 FM191800 22010KT P6SM BKN100 FM192000 26013KT P6SM BKN150 FM200000 34016G24KT P6SM BKN150

4,000개 이상의 공항 관측 자료 및 예보 (METAR 및 TAF 보고).

지도상에서 검색 가능한 기상관측소가 노란 점과 빨간 점으로 표시되어 있습니다.

기상관측소 명을 보려면 표시 위로 마우스를 이동하세요.

날씨 관측과 예보를 보려면 클릭하세요.

지도 변경 : 확대하려면 엑스 표시가 있는 녹색 버튼, 축소하려면 빼기 표시가 있는 녹색 버튼, 다음 페이지의 지도를 보려면 녹색 화살표를 클릭하세요.


METAR-TAF: